Terminal Aerodrome Forecast
Issued by NWS

Current Version | Previous Version | Text Only | Print | Product List | Glossary On
Versions: 1 2 3 4 5 6 7 8 9 10 11 12 13 14 15 16 17 18 19 20 21 22 23 24 25 26 27 28 29 30 31 32 33 34 35 36 37 38 39 40 41 42 43 44 45 46 47 48 49 50
389
FTUS41 KRNK 181120
TAFBCB
TAF
KBCB 181120Z 1812/1912 29010G14KT P6SM OVC035
      TEMPO 1812/1813 OVC020
     FM181600 30014G26KT P6SM SCT150
     FM182100 29010KT P6SM SCT200
     FM190300 28005KT P6SM FEW020=

USA.gov is the U.S. government's official web portal to all federal, state and local government web resources and services.